ěÝzenÝ letovÚho provozu ╚eskÚ republiky
Letiste: LKPJ Aktualizace: 24.09.2023 02:30:40  UTC
 METAR LKPJ 24.09. 02:30 ...
METAR LKPJ 240230Z AUTO 32007KT 9999 // SCT100/// BKN210/// 12/08 Q1022=